sensor_id;sensor_type;location;lat;lon;timestamp;temperature;humidity
80254;DHT22;69563;37.974;23.708;2023-04-20T07:10:56;28.10;30.50
80254;DHT22;69563;37.974;23.708;2023-04-20T07:13:21;28.20;30.50
80254;DHT22;69563;37.974;23.708;2023-04-20T07:15:47;28.30;30.50
80254;DHT22;69563;37.974;23.708;2023-04-20T07:18:13;28.30;30.30
80254;DHT22;69563;37.974;23.708;2023-04-20T07:20:38;28.40;30.20
80254;DHT22;69563;37.974;23.708;2023-04-20T07:23:04;28.40;30.00
80254;DHT22;69563;37.974;23.708;2023-04-20T07:25:30;28.40;29.80
80254;DHT22;69563;37.974;23.708;2023-04-20T07:27:57;28.40;29.90
80254;DHT22;69563;37.974;23.708;2023-04-20T07:30:23;28.40;29.80
80254;DHT22;69563;37.974;23.708;2023-04-20T07:32:49;28.50;29.80
80254;DHT22;69563;37.974;23.708;2023-04-20T07:35:14;28.50;29.70
80254;DHT22;69563;37.974;23.708;2023-04-20T07:37:40;28.60;29.70
80254;DHT22;69563;37.974;23.708;2023-04-20T07:40:07;28.60;29.70
80254;DHT22;69563;37.974;23.708;2023-04-20T07:42:34;28.70;29.70
80254;DHT22;69563;37.974;23.708;2023-04-20T07:45:04;28.70;29.50
80254;DHT22;69563;37.974;23.708;2023-04-20T07:47:32;28.70;29.50
80254;DHT22;69563;37.974;23.708;2023-04-20T07:49:58;28.70;29.50
80254;DHT22;69563;37.974;23.708;2023-04-20T07:52:27;28.70;29.50
80254;DHT22;69563;37.974;23.708;2023-04-20T07:54:54;28.70;30.50
80254;DHT22;69563;37.974;23.708;2023-04-20T07:57:22;28.60;29.80
80254;DHT22;69563;37.974;23.708;2023-04-20T07:59:48;28.60;29.80
80254;DHT22;69563;37.974;23.708;2023-04-20T08:02:15;28.50;29.90
80254;DHT22;69563;37.974;23.708;2023-04-20T08:04:41;28.40;30.00
80254;DHT22;69563;37.974;23.708;2023-04-20T08:07:09;28.40;30.10
80254;DHT22;69563;37.974;23.708;2023-04-20T08:09:35;28.30;30.20
80254;DHT22;69563;37.974;23.708;2023-04-20T08:12:01;28.10;30.30
80254;DHT22;69563;37.974;23.708;2023-04-20T08:14:26;28.00;30.40
80254;DHT22;69563;37.974;23.708;2023-04-20T08:16:52;27.90;30.60
80254;DHT22;69563;37.974;23.708;2023-04-20T08:19:18;27.90;30.60
80254;DHT22;69563;37.974;23.708;2023-04-20T08:21:44;27.80;30.70
80254;DHT22;69563;37.974;23.708;2023-04-20T08:24:10;27.80;30.70
80254;DHT22;69563;37.974;23.708;2023-04-20T08:26:35;27.70;31.10
80254;DHT22;69563;37.974;23.708;2023-04-20T08:29:02;27.70;31.10
80254;DHT22;69563;37.974;23.708;2023-04-20T08:31:28;27.60;31.20
80254;DHT22;69563;37.974;23.708;2023-04-20T08:33:54;27.60;31.40
80254;DHT22;69563;37.974;23.708;2023-04-20T08:36:20;27.60;31.50
80254;DHT22;69563;37.974;23.708;2023-04-20T08:38:49;27.60;31.50
80254;DHT22;69563;37.974;23.708;2023-04-20T08:41:15;27.60;31.70
80254;DHT22;69563;37.974;23.708;2023-04-20T08:43:41;27.50;31.80
80254;DHT22;69563;37.974;23.708;2023-04-20T08:46:07;27.50;31.90
80254;DHT22;69563;37.974;23.708;2023-04-20T08:48:34;27.50;32.00
80254;DHT22;69563;37.974;23.708;2023-04-20T08:51:04;27.50;31.50
80254;DHT22;69563;37.974;23.708;2023-04-20T08:53:30;27.50;32.60
80254;DHT22;69563;37.974;23.708;2023-04-20T08:55:58;27.50;32.70
80254;DHT22;69563;37.974;23.708;2023-04-20T08:58:28;27.50;33.00
80254;DHT22;69563;37.974;23.708;2023-04-20T09:00:54;27.50;33.40
80254;DHT22;69563;37.974;23.708;2023-04-20T09:03:40;27.50;33.50
80254;DHT22;69563;37.974;23.708;2023-04-20T09:06:16;27.50;33.50
80254;DHT22;69563;37.974;23.708;2023-04-20T09:08:44;27.50;33.60
80254;DHT22;69563;37.974;23.708;2023-04-20T09:11:23;27.40;33.70
80254;DHT22;69563;37.974;23.708;2023-04-20T09:14:00;27.50;34.00
80254;DHT22;69563;37.974;23.708;2023-04-20T09:16:27;27.50;34.00
80254;DHT22;69563;37.974;23.708;2023-04-20T09:18:54;27.50;34.00
80254;DHT22;69563;37.974;23.708;2023-04-20T09:21:22;27.40;34.20
80254;DHT22;69563;37.974;23.708;2023-04-20T09:24:00;27.40;34.20
80254;DHT22;69563;37.974;23.708;2023-04-20T09:26:27;27.50;34.30
80254;DHT22;69563;37.974;23.708;2023-04-20T09:28:52;27.50;34.50
80254;DHT22;69563;37.974;23.708;2023-04-20T09:31:20;27.40;34.40
80254;DHT22;69563;37.974;23.708;2023-04-20T09:34:00;27.40;34.50
80254;DHT22;69563;37.974;23.708;2023-04-20T09:39:15;27.40;34.60
80254;DHT22;69563;37.974;23.708;2023-04-20T09:41:42;27.40;34.50
80254;DHT22;69563;37.974;23.708;2023-04-20T09:44:08;27.40;34.30
80254;DHT22;69563;37.974;23.708;2023-04-20T09:46:37;27.40;34.50
80254;DHT22;69563;37.974;23.708;2023-04-20T09:49:05;27.30;34.40
80254;DHT22;69563;37.974;23.708;2023-04-20T09:51:33;27.40;34.50
80254;DHT22;69563;37.974;23.708;2023-04-20T09:54:02;27.40;34.50
80254;DHT22;69563;37.974;23.708;2023-04-20T09:56:29;27.30;34.40
80254;DHT22;69563;37.974;23.708;2023-04-20T09:58:55;27.30;34.40
80254;DHT22;69563;37.974;23.708;2023-04-20T10:01:22;27.30;34.50
80254;DHT22;69563;37.974;23.708;2023-04-20T10:03:49;27.30;34.40
80254;DHT22;69563;37.974;23.708;2023-04-20T10:08:53;27.30;34.00
80254;DHT22;69563;37.974;23.708;2023-04-20T10:11:32;27.30;34.00
80254;DHT22;69563;37.974;23.708;2023-04-20T10:14:00;27.30;34.10
80254;DHT22;69563;37.974;23.708;2023-04-20T10:16:26;27.30;34.00
80254;DHT22;69563;37.974;23.708;2023-04-20T10:18:59;27.30;34.00
80254;DHT22;69563;37.974;23.708;2023-04-20T10:21:26;27.20;34.00
80254;DHT22;69563;37.974;23.708;2023-04-20T10:23:52;27.20;33.50
80254;DHT22;69563;37.974;23.708;2023-04-20T10:26:18;27.20;33.80
80254;DHT22;69563;37.974;23.708;2023-04-20T10:28:45;27.20;33.70
80254;DHT22;69563;37.974;23.708;2023-04-20T10:31:12;27.20;33.50
80254;DHT22;69563;37.974;23.708;2023-04-20T10:34:09;27.20;33.30
80254;DHT22;69563;37.974;23.708;2023-04-20T10:36:35;27.20;33.30
80254;DHT22;69563;37.974;23.708;2023-04-20T10:39:14;27.20;32.90
80254;DHT22;69563;37.974;23.708;2023-04-20T10:41:56;27.20;33.00
80254;DHT22;69563;37.974;23.708;2023-04-20T10:44:28;27.20;32.70
80254;DHT22;69563;37.974;23.708;2023-04-20T10:46:55;27.20;32.80
80254;DHT22;69563;37.974;23.708;2023-04-20T10:49:28;27.20;32.60
80254;DHT22;69563;37.974;23.708;2023-04-20T10:51:55;27.20;32.70
80254;DHT22;69563;37.974;23.708;2023-04-20T10:54:21;27.20;32.40
80254;DHT22;69563;37.974;23.708;2023-04-20T10:56:49;27.20;32.50
80254;DHT22;69563;37.974;23.708;2023-04-20T10:59:23;27.20;32.60
80254;DHT22;69563;37.974;23.708;2023-04-20T11:01:50;27.20;32.40
80254;DHT22;69563;37.974;23.708;2023-04-20T11:04:16;27.20;32.10
80254;DHT22;69563;37.974;23.708;2023-04-20T11:06:45;27.20;32.20
80254;DHT22;69563;37.974;23.708;2023-04-20T11:09:20;27.30;32.20
80254;DHT22;69563;37.974;23.708;2023-04-20T11:14:23;27.30;32.00
80254;DHT22;69563;37.974;23.708;2023-04-20T11:16:52;27.30;31.90
80254;DHT22;69563;37.974;23.708;2023-04-20T11:19:27;27.30;31.40
80254;DHT22;69563;37.974;23.708;2023-04-20T11:21:53;27.40;31.60
80254;DHT22;69563;37.974;23.708;2023-04-20T11:24:20;27.40;31.60
80254;DHT22;69563;37.974;23.708;2023-04-20T11:26:47;27.40;31.60
80254;DHT22;69563;37.974;23.708;2023-04-20T11:29:38;27.40;31.60
80254;DHT22;69563;37.974;23.708;2023-04-20T11:32:08;27.40;31.50
80254;DHT22;69563;37.974;23.708;2023-04-20T11:34:36;27.40;31.50
80254;DHT22;69563;37.974;23.708;2023-04-20T11:37:04;27.30;31.60
80254;DHT22;69563;37.974;23.708;2023-04-20T11:39:31;27.30;31.70
80254;DHT22;69563;37.974;23.708;2023-04-20T11:41:58;27.30;32.60
80254;DHT22;69563;37.974;23.708;2023-04-20T11:44:24;27.30;31.50
80254;DHT22;69563;37.974;23.708;2023-04-20T11:46:51;27.30;31.70
80254;DHT22;69563;37.974;23.708;2023-04-20T11:49:22;27.30;31.80
80254;DHT22;69563;37.974;23.708;2023-04-20T11:51:48;27.30;31.70
80254;DHT22;69563;37.974;23.708;2023-04-20T11:54:14;27.30;31.80
80254;DHT22;69563;37.974;23.708;2023-04-20T11:56:41;27.30;31.90
80254;DHT22;69563;37.974;23.708;2023-04-20T11:59:07;27.30;32.00
80254;DHT22;69563;37.974;23.708;2023-04-20T12:01:34;27.30;32.10
80254;DHT22;69563;37.974;23.708;2023-04-20T12:04:00;27.30;32.10
80254;DHT22;69563;37.974;23.708;2023-04-20T12:06:29;27.20;32.10
80254;DHT22;69563;37.974;23.708;2023-04-20T12:08:56;27.20;32.10
80254;DHT22;69563;37.974;23.708;2023-04-20T12:11:23;27.20;32.10
80254;DHT22;69563;37.974;23.708;2023-04-20T12:13:49;27.10;32.10
80254;DHT22;69563;37.974;23.708;2023-04-20T12:16:15;27.20;32.00
80254;DHT22;69563;37.974;23.708;2023-04-20T12:18:41;27.10;31.70
80254;DHT22;69563;37.974;23.708;2023-04-20T12:21:07;27.10;31.60
80254;DHT22;69563;37.974;23.708;2023-04-20T12:23:33;27.10;31.60
80254;DHT22;69563;37.974;23.708;2023-04-20T12:26:01;27.00;31.60
80254;DHT22;69563;37.974;23.708;2023-04-20T12:28:28;27.00;31.60
80254;DHT22;69563;37.974;23.708;2023-04-20T12:30:54;27.00;31.70
80254;DHT22;69563;37.974;23.708;2023-04-20T12:33:20;27.00;31.70
80254;DHT22;69563;37.974;23.708;2023-04-20T12:35:46;26.90;31.80
80254;DHT22;69563;37.974;23.708;2023-04-20T12:38:11;26.90;31.50
80254;DHT22;69563;37.974;23.708;2023-04-20T12:40:37;26.90;31.50
80254;DHT22;69563;37.974;23.708;2023-04-20T12:43:03;26.90;31.60
80254;DHT22;69563;37.974;23.708;2023-04-20T12:45:29;26.80;31.60
80254;DHT22;69563;37.974;23.708;2023-04-20T12:47:55;26.80;31.70
80254;DHT22;69563;37.974;23.708;2023-04-20T12:50:23;26.80;31.90
80254;DHT22;69563;37.974;23.708;2023-04-20T12:52:49;26.80;32.00
80254;DHT22;69563;37.974;23.708;2023-04-20T12:55:16;26.80;32.10
80254;DHT22;69563;37.974;23.708;2023-04-20T12:57:43;26.70;32.40
80254;DHT22;69563;37.974;23.708;2023-04-20T13:00:09;26.70;32.40
80254;DHT22;69563;37.974;23.708;2023-04-20T13:02:37;26.70;32.70
80254;DHT22;69563;37.974;23.708;2023-04-20T13:05:03;26.70;32.90
80254;DHT22;69563;37.974;23.708;2023-04-20T13:07:29;26.70;33.10
80254;DHT22;69563;37.974;23.708;2023-04-20T13:09:55;26.70;33.00
80254;DHT22;69563;37.974;23.708;2023-04-20T13:12:21;26.60;33.10
80254;DHT22;69563;37.974;23.708;2023-04-20T13:14:47;26.70;33.20
80254;DHT22;69563;37.974;23.708;2023-04-20T13:17:13;26.60;33.30
80254;DHT22;69563;37.974;23.708;2023-04-20T13:19:39;26.70;33.40
80254;DHT22;69563;37.974;23.708;2023-04-20T13:22:04;26.60;34.30
80254;DHT22;69563;37.974;23.708;2023-04-20T13:24:30;26.60;33.30
80254;DHT22;69563;37.974;23.708;2023-04-20T13:26:56;26.60;33.40
80254;DHT22;69563;37.974;23.708;2023-04-20T13:29:23;26.60;33.30
80254;DHT22;69563;37.974;23.708;2023-04-20T13:31:49;26.50;33.30
80254;DHT22;69563;37.974;23.708;2023-04-20T13:34:17;26.50;33.40
80254;DHT22;69563;37.974;23.708;2023-04-20T13:36:43;26.50;33.70
80254;DHT22;69563;37.974;23.708;2023-04-20T13:39:10;26.50;33.70
80254;DHT22;69563;37.974;23.708;2023-04-20T13:41:36;26.50;33.80
80254;DHT22;69563;37.974;23.708;2023-04-20T13:44:03;26.50;35.00
80254;DHT22;69563;37.974;23.708;2023-04-20T13:46:30;26.40;34.10
80254;DHT22;69563;37.974;23.708;2023-04-20T13:48:56;26.40;34.20
80254;DHT22;69563;37.974;23.708;2023-04-20T13:51:23;26.40;34.30
80254;DHT22;69563;37.974;23.708;2023-04-20T13:53:50;26.40;34.40
80254;DHT22;69563;37.974;23.708;2023-04-20T13:56:16;26.40;34.50
80254;DHT22;69563;37.974;23.708;2023-04-20T13:58:42;26.40;34.60
80254;DHT22;69563;37.974;23.708;2023-04-20T14:01:10;26.40;34.60
80254;DHT22;69563;37.974;23.708;2023-04-20T14:03:36;26.40;34.70
80254;DHT22;69563;37.974;23.708;2023-04-20T14:06:02;26.40;34.80
80254;DHT22;69563;37.974;23.708;2023-04-20T14:08:28;26.40;35.40
80254;DHT22;69563;37.974;23.708;2023-04-20T14:10:54;26.30;34.80
80254;DHT22;69563;37.974;23.708;2023-04-20T14:13:21;26.30;34.80
80254;DHT22;69563;37.974;23.708;2023-04-20T14:15:47;26.30;34.80
80254;DHT22;69563;37.974;23.708;2023-04-20T14:18:12;26.30;34.70
80254;DHT22;69563;37.974;23.708;2023-04-20T14:20:38;26.20;34.50
80254;DHT22;69563;37.974;23.708;2023-04-20T14:23:04;26.20;34.50
80254;DHT22;69563;37.974;23.708;2023-04-20T14:25:30;26.20;34.60
80254;DHT22;69563;37.974;23.708;2023-04-20T14:27:55;26.20;34.50
80254;DHT22;69563;37.974;23.708;2023-04-20T14:30:21;26.20;33.80
80254;DHT22;69563;37.974;23.708;2023-04-20T14:32:57;26.20;34.00
80254;DHT22;69563;37.974;23.708;2023-04-20T14:35:25;26.20;34.20
80254;DHT22;69563;37.974;23.708;2023-04-20T14:37:51;26.10;34.00
80254;DHT22;69563;37.974;23.708;2023-04-20T14:40:18;26.10;34.10
80254;DHT22;69563;37.974;23.708;2023-04-20T14:42:45;26.20;34.20
80254;DHT22;69563;37.974;23.708;2023-04-20T14:45:11;26.10;34.10
80254;DHT22;69563;37.974;23.708;2023-04-20T14:47:37;26.10;34.20
80254;DHT22;69563;37.974;23.708;2023-04-20T14:50:03;26.10;34.20
80254;DHT22;69563;37.974;23.708;2023-04-20T14:52:29;26.10;34.10
80254;DHT22;69563;37.974;23.708;2023-04-20T14:54:55;26.00;34.10
80254;DHT22;69563;37.974;23.708;2023-04-20T14:57:21;26.10;34.10
80254;DHT22;69563;37.974;23.708;2023-04-20T14:59:46;26.10;34.10
80254;DHT22;69563;37.974;23.708;2023-04-20T15:02:12;26.00;34.00
80254;DHT22;69563;37.974;23.708;2023-04-20T15:04:38;26.00;34.00
80254;DHT22;69563;37.974;23.708;2023-04-20T15:07:04;26.00;34.00
80254;DHT22;69563;37.974;23.708;2023-04-20T15:09:30;26.00;34.00
80254;DHT22;69563;37.974;23.708;2023-04-20T15:11:57;25.90;33.70
80254;DHT22;69563;37.974;23.708;2023-04-20T15:14:23;25.90;33.50
80254;DHT22;69563;37.974;23.708;2023-04-20T15:16:51;25.90;33.20
80254;DHT22;69563;37.974;23.708;2023-04-20T15:19:18;25.90;33.40
80254;DHT22;69563;37.974;23.708;2023-04-20T15:21:44;25.90;33.40
80254;DHT22;69563;37.974;23.708;2023-04-20T15:24:09;25.90;33.30
80254;DHT22;69563;37.974;23.708;2023-04-20T15:26:35;25.90;33.30
80254;DHT22;69563;37.974;23.708;2023-04-20T15:29:01;25.90;33.60
80254;DHT22;69563;37.974;23.708;2023-04-20T15:31:27;25.80;33.30
80254;DHT22;69563;37.974;23.708;2023-04-20T15:33:52;25.90;33.50
80254;DHT22;69563;37.974;23.708;2023-04-20T15:36:20;25.90;33.50
80254;DHT22;69563;37.974;23.708;2023-04-20T15:38:46;25.90;33.50
80254;DHT22;69563;37.974;23.708;2023-04-20T15:41:12;25.90;33.60
80254;DHT22;69563;37.974;23.708;2023-04-20T15:43:37;25.80;33.50
80254;DHT22;69563;37.974;23.708;2023-04-20T15:46:04;25.80;33.60
80254;DHT22;69563;37.974;23.708;2023-04-20T15:48:29;25.80;33.60
80254;DHT22;69563;37.974;23.708;2023-04-20T15:50:55;25.80;33.70
80254;DHT22;69563;37.974;23.708;2023-04-20T15:53:21;25.80;33.80
80254;DHT22;69563;37.974;23.708;2023-04-20T15:55:47;25.80;33.90
80254;DHT22;69563;37.974;23.708;2023-04-20T15:58:12;25.80;34.00
80254;DHT22;69563;37.974;23.708;2023-04-20T16:00:39;25.80;34.10
80254;DHT22;69563;37.974;23.708;2023-04-20T16:03:05;25.70;34.00
80254;DHT22;69563;37.974;23.708;2023-04-20T16:05:31;25.70;34.20
80254;DHT22;69563;37.974;23.708;2023-04-20T16:07:58;25.70;34.30
80254;DHT22;69563;37.974;23.708;2023-04-20T16:10:23;25.70;34.40
80254;DHT22;69563;37.974;23.708;2023-04-20T16:12:52;25.70;34.60
80254;DHT22;69563;37.974;23.708;2023-04-20T16:15:18;25.70;34.60
80254;DHT22;69563;37.974;23.708;2023-04-20T16:17:44;25.70;34.60
80254;DHT22;69563;37.974;23.708;2023-04-20T16:20:11;25.60;34.70
80254;DHT22;69563;37.974;23.708;2023-04-20T16:22:37;25.60;34.80
80254;DHT22;69563;37.974;23.708;2023-04-20T16:25:03;25.60;34.90
80254;DHT22;69563;37.974;23.708;2023-04-20T16:27:30;25.60;35.10
80254;DHT22;69563;37.974;23.708;2023-04-20T16:29:56;25.50;35.10
80254;DHT22;69563;37.974;23.708;2023-04-20T16:32:22;25.50;35.10
80254;DHT22;69563;37.974;23.708;2023-04-20T16:34:48;25.50;35.30
80254;DHT22;69563;37.974;23.708;2023-04-20T16:37:13;25.50;35.40
80254;DHT22;69563;37.974;23.708;2023-04-20T16:39:39;25.50;35.50
80254;DHT22;69563;37.974;23.708;2023-04-20T16:42:05;25.50;35.60
80254;DHT22;69563;37.974;23.708;2023-04-20T16:44:30;25.50;35.80
80254;DHT22;69563;37.974;23.708;2023-04-20T16:46:56;25.50;35.90
80254;DHT22;69563;37.974;23.708;2023-04-20T16:49:22;25.40;35.90
80254;DHT22;69563;37.974;23.708;2023-04-20T16:51:47;25.40;36.20
80254;DHT22;69563;37.974;23.708;2023-04-20T16:54:13;25.40;36.20
80254;DHT22;69563;37.974;23.708;2023-04-20T16:56:39;25.30;36.50
80254;DHT22;69563;37.974;23.708;2023-04-20T16:59:05;25.30;36.40
80254;DHT22;69563;37.974;23.708;2023-04-20T17:01:31;25.30;36.80
80254;DHT22;69563;37.974;23.708;2023-04-20T17:03:57;25.30;36.80
80254;DHT22;69563;37.974;23.708;2023-04-20T17:06:24;25.30;37.00
80254;DHT22;69563;37.974;23.708;2023-04-20T17:08:50;25.30;36.90
80254;DHT22;69563;37.974;23.708;2023-04-20T17:11:16;25.20;37.00
80254;DHT22;69563;37.974;23.708;2023-04-20T17:13:43;25.20;37.00
80254;DHT22;69563;37.974;23.708;2023-04-20T17:16:09;25.20;37.10
80254;DHT22;69563;37.974;23.708;2023-04-20T17:18:35;25.10;37.20
80254;DHT22;69563;37.974;23.708;2023-04-20T17:21:03;25.10;37.20
80254;DHT22;69563;37.974;23.708;2023-04-20T17:23:32;25.10;37.10
80254;DHT22;69563;37.974;23.708;2023-04-20T17:25:57;25.10;37.20
80254;DHT22;69563;37.974;23.708;2023-04-20T17:28:23;25.10;37.40
80254;DHT22;69563;37.974;23.708;2023-04-20T17:30:49;25.00;37.20
80254;DHT22;69563;37.974;23.708;2023-04-20T17:33:14;25.00;37.30
80254;DHT22;69563;37.974;23.708;2023-04-20T17:35:40;25.00;37.50
80254;DHT22;69563;37.974;23.708;2023-04-20T17:38:06;24.90;37.50
80254;DHT22;69563;37.974;23.708;2023-04-20T17:40:32;24.90;37.50
80254;DHT22;69563;37.974;23.708;2023-04-20T17:42:58;24.90;37.60
80254;DHT22;69563;37.974;23.708;2023-04-20T17:45:24;24.90;37.50
80254;DHT22;69563;37.974;23.708;2023-04-20T17:47:49;24.90;37.20
80254;DHT22;69563;37.974;23.708;2023-04-20T17:50:18;24.90;37.50
80254;DHT22;69563;37.974;23.708;2023-04-20T17:52:43;24.90;37.40
80254;DHT22;69563;37.974;23.708;2023-04-20T17:55:09;24.80;37.30
80254;DHT22;69563;37.974;23.708;2023-04-20T17:57:37;24.80;37.50
80254;DHT22;69563;37.974;23.708;2023-04-20T18:00:04;24.80;37.40
80254;DHT22;69563;37.974;23.708;2023-04-20T18:02:30;24.80;37.50
80254;DHT22;69563;37.974;23.708;2023-04-20T18:04:56;24.70;37.40
80254;DHT22;69563;37.974;23.708;2023-04-20T18:07:24;24.80;37.50
80254;DHT22;69563;37.974;23.708;2023-04-20T18:09:50;24.70;37.40
80254;DHT22;69563;37.974;23.708;2023-04-20T18:12:15;24.70;37.40
80254;DHT22;69563;37.974;23.708;2023-04-20T18:14:41;24.70;37.40
80254;DHT22;69563;37.974;23.708;2023-04-20T18:17:07;24.70;37.40
80254;DHT22;69563;37.974;23.708;2023-04-20T18:19:33;24.60;37.40
80254;DHT22;69563;37.974;23.708;2023-04-20T18:21:59;24.60;37.50
80254;DHT22;69563;37.974;23.708;2023-04-20T18:24:24;24.60;37.50
80254;DHT22;69563;37.974;23.708;2023-04-20T18:26:50;24.60;37.70
80254;DHT22;69563;37.974;23.708;2023-04-20T18:29:16;24.60;37.80
80254;DHT22;69563;37.974;23.708;2023-04-20T18:31:43;24.50;38.80
80254;DHT22;69563;37.974;23.708;2023-04-20T18:34:13;24.50;37.80
80254;DHT22;69563;37.974;23.708;2023-04-20T18:36:39;24.50;38.10
80254;DHT22;69563;37.974;23.708;2023-04-20T18:39:06;24.50;38.20
80254;DHT22;69563;37.974;23.708;2023-04-20T18:41:35;24.50;38.30
80254;DHT22;69563;37.974;23.708;2023-04-20T18:44:02;24.50;38.20
80254;DHT22;69563;37.974;23.708;2023-04-20T18:46:28;24.50;38.30
80254;DHT22;69563;37.974;23.708;2023-04-20T18:48:54;24.50;38.40
80254;DHT22;69563;37.974;23.708;2023-04-20T18:51:20;24.50;38.40
80254;DHT22;69563;37.974;23.708;2023-04-20T18:53:46;24.40;38.40
80254;DHT22;69563;37.974;23.708;2023-04-20T18:56:12;24.40;38.60
80254;DHT22;69563;37.974;23.708;2023-04-20T18:58:37;24.40;38.50
80254;DHT22;69563;37.974;23.708;2023-04-20T19:01:03;24.40;38.50
80254;DHT22;69563;37.974;23.708;2023-04-20T19:03:30;24.40;38.60
80254;DHT22;69563;37.974;23.708;2023-04-20T19:05:56;24.30;38.70
80254;DHT22;69563;37.974;23.708;2023-04-20T19:08:22;24.30;38.60
80254;DHT22;69563;37.974;23.708;2023-04-20T19:10:48;24.40;38.80
80254;DHT22;69563;37.974;23.708;2023-04-20T19:13:14;24.30;38.80
80254;DHT22;69563;37.974;23.708;2023-04-20T19:15:45;24.30;38.90
80254;DHT22;69563;37.974;23.708;2023-04-20T19:18:11;24.30;38.90
80254;DHT22;69563;37.974;23.708;2023-04-20T19:20:37;24.30;38.90
80254;DHT22;69563;37.974;23.708;2023-04-20T19:23:02;24.30;39.10
80254;DHT22;69563;37.974;23.708;2023-04-20T19:25:28;24.30;39.10
80254;DHT22;69563;37.974;23.708;2023-04-20T19:27:54;24.30;39.10
80254;DHT22;69563;37.974;23.708;2023-04-20T19:30:20;24.30;39.20
80254;DHT22;69563;37.974;23.708;2023-04-20T19:32:46;24.30;39.30
80254;DHT22;69563;37.974;23.708;2023-04-20T19:35:12;24.30;39.30
80254;DHT22;69563;37.974;23.708;2023-04-20T19:37:38;24.20;39.40
80254;DHT22;69563;37.974;23.708;2023-04-20T19:40:04;24.20;39.40
80254;DHT22;69563;37.974;23.708;2023-04-20T19:42:30;24.30;39.50
80254;DHT22;69563;37.974;23.708;2023-04-20T19:44:57;24.30;39.70
80254;DHT22;69563;37.974;23.708;2023-04-20T19:47:23;24.30;39.60
80254;DHT22;69563;37.974;23.708;2023-04-20T19:49:49;24.20;40.00
80254;DHT22;69563;37.974;23.708;2023-04-20T19:52:15;24.20;40.00
80254;DHT22;69563;37.974;23.708;2023-04-20T19:54:41;24.20;40.10
80254;DHT22;69563;37.974;23.708;2023-04-20T19:57:07;24.20;40.30
80254;DHT22;69563;37.974;23.708;2023-04-20T19:59:32;24.20;40.30
80254;DHT22;69563;37.974;23.708;2023-04-20T20:01:58;24.20;40.30
80254;DHT22;69563;37.974;23.708;2023-04-20T20:04:24;24.20;40.60
80254;DHT22;69563;37.974;23.708;2023-04-20T20:06:49;24.20;41.70
80254;DHT22;69563;37.974;23.708;2023-04-20T20:09:18;24.10;40.70
80254;DHT22;69563;37.974;23.708;2023-04-20T20:11:44;24.10;40.90
80254;DHT22;69563;37.974;23.708;2023-04-20T20:14:18;24.10;41.10
80254;DHT22;69563;37.974;23.708;2023-04-20T20:16:44;24.10;41.60
80254;DHT22;69563;37.974;23.708;2023-04-20T20:19:10;24.10;41.30
80254;DHT22;69563;37.974;23.708;2023-04-20T20:21:36;24.10;41.50
80254;DHT22;69563;37.974;23.708;2023-04-20T20:24:01;24.10;41.70
80254;DHT22;69563;37.974;23.708;2023-04-20T20:26:27;24.00;41.50
80254;DHT22;69563;37.974;23.708;2023-04-20T20:28:53;24.00;42.00
80254;DHT22;69563;37.974;23.708;2023-04-20T20:31:19;24.10;41.90
80254;DHT22;69563;37.974;23.708;2023-04-20T20:33:46;24.00;42.00
80254;DHT22;69563;37.974;23.708;2023-04-20T20:36:11;24.00;42.60
80254;DHT22;69563;37.974;23.708;2023-04-20T20:38:37;24.00;42.70
80254;DHT22;69563;37.974;23.708;2023-04-20T20:41:05;23.90;42.90
80254;DHT22;69563;37.974;23.708;2023-04-20T20:43:31;23.90;43.30
80254;DHT22;69563;37.974;23.708;2023-04-20T20:45:57;23.90;43.30
80254;DHT22;69563;37.974;23.708;2023-04-20T20:48:22;23.90;43.30
80254;DHT22;69563;37.974;23.708;2023-04-20T20:50:48;23.90;43.60
80254;DHT22;69563;37.974;23.708;2023-04-20T20:53:14;23.90;43.70
80254;DHT22;69563;37.974;23.708;2023-04-20T20:55:42;23.90;43.70
80254;DHT22;69563;37.974;23.708;2023-04-20T20:58:08;23.80;43.90
80254;DHT22;69563;37.974;23.708;2023-04-20T21:00:33;23.80;44.20
80254;DHT22;69563;37.974;23.708;2023-04-20T21:02:59;23.80;44.10
80254;DHT22;69563;37.974;23.708;2023-04-20T21:05:25;23.80;44.20
80254;DHT22;69563;37.974;23.708;2023-04-20T21:07:51;23.80;44.30
80254;DHT22;69563;37.974;23.708;2023-04-20T21:10:17;23.80;44.20
80254;DHT22;69563;37.974;23.708;2023-04-20T21:12:42;23.80;44.50
80254;DHT22;69563;37.974;23.708;2023-04-20T21:15:09;23.80;44.50
80254;DHT22;69563;37.974;23.708;2023-04-20T21:17:35;23.80;44.80
80254;DHT22;69563;37.974;23.708;2023-04-20T21:20:00;23.80;44.80
80254;DHT22;69563;37.974;23.708;2023-04-20T21:22:29;23.80;45.00
80254;DHT22;69563;37.974;23.708;2023-04-20T21:24:54;23.80;44.90
80254;DHT22;69563;37.974;23.708;2023-04-20T21:27:20;23.80;44.90
80254;DHT22;69563;37.974;23.708;2023-04-20T21:29:46;23.80;45.00
80254;DHT22;69563;37.974;23.708;2023-04-20T21:32:11;23.70;44.90
80254;DHT22;69563;37.974;23.708;2023-04-20T21:34:37;23.70;45.20
80254;DHT22;69563;37.974;23.708;2023-04-20T21:37:03;23.70;45.10
80254;DHT22;69563;37.974;23.708;2023-04-20T21:39:32;23.70;45.00
80254;DHT22;69563;37.974;23.708;2023-04-20T21:41:58;23.70;45.40
80254;DHT22;69563;37.974;23.708;2023-04-20T21:44:24;23.70;45.20
80254;DHT22;69563;37.974;23.708;2023-04-20T21:46:50;23.70;45.10
80254;DHT22;69563;37.974;23.708;2023-04-20T21:49:16;23.70;45.40
80254;DHT22;69563;37.974;23.708;2023-04-20T21:51:42;23.70;45.40
80254;DHT22;69563;37.974;23.708;2023-04-20T21:54:08;23.70;45.60
80254;DHT22;69563;37.974;23.708;2023-04-20T21:56:33;23.70;45.60
80254;DHT22;69563;37.974;23.708;2023-04-20T21:58:59;23.70;45.50
80254;DHT22;69563;37.974;23.708;2023-04-20T22:01:25;23.60;45.40
80254;DHT22;69563;37.974;23.708;2023-04-20T22:03:51;23.60;45.50
80254;DHT22;69563;37.974;23.708;2023-04-20T22:06:17;23.60;45.60
80254;DHT22;69563;37.974;23.708;2023-04-20T22:08:42;23.60;45.80
80254;DHT22;69563;37.974;23.708;2023-04-20T22:11:08;23.60;45.80
80254;DHT22;69563;37.974;23.708;2023-04-20T22:13:34;23.60;45.90
80254;DHT22;69563;37.974;23.708;2023-04-20T22:16:00;23.60;45.80
80254;DHT22;69563;37.974;23.708;2023-04-20T22:18:26;23.60;45.90
80254;DHT22;69563;37.974;23.708;2023-04-20T22:20:51;23.60;45.90
80254;DHT22;69563;37.974;23.708;2023-04-20T22:23:17;23.50;45.90
80254;DHT22;69563;37.974;23.708;2023-04-20T22:25:43;23.50;45.70
80254;DHT22;69563;37.974;23.708;2023-04-20T22:28:10;23.50;45.60
80254;DHT22;69563;37.974;23.708;2023-04-20T22:30:36;23.50;45.40